createdAt,value
2023-05-07T00:02:12.978Z,58.25
2023-05-07T00:04:40.665Z,58.40
2023-05-07T00:07:08.140Z,59.38
2023-05-07T00:09:35.564Z,58.59
2023-05-07T00:12:03.663Z,58.29
2023-05-07T00:14:31.089Z,58.24
2023-05-07T00:16:58.545Z,58.80
2023-05-07T00:19:26.574Z,59.81
2023-05-07T00:21:57.065Z,59.03
2023-05-07T00:24:24.613Z,58.75
2023-05-07T00:26:53.748Z,58.82
2023-05-07T00:29:21.151Z,58.60
2023-05-07T00:31:50.593Z,58.32
2023-05-07T00:34:18.352Z,58.26
2023-05-07T00:36:45.964Z,58.69
2023-05-07T00:39:13.376Z,58.95
2023-05-07T00:41:41.096Z,58.61
2023-05-07T00:44:08.669Z,58.81
2023-05-07T00:46:36.268Z,57.96
2023-05-07T00:49:04.060Z,57.74
2023-05-07T00:51:31.742Z,57.78
2023-05-07T00:53:59.276Z,57.80
2023-05-07T00:56:27.458Z,57.84
2023-05-07T00:58:54.930Z,58.04
2023-05-07T01:01:22.497Z,57.79
2023-05-07T01:03:50.212Z,57.43
2023-05-07T01:06:18.622Z,57.29
2023-05-07T01:08:47.177Z,57.43
2023-05-07T01:11:15.272Z,57.15
2023-05-07T01:13:42.743Z,57.19
2023-05-07T01:16:10.645Z,57.88
2023-05-07T01:18:38.598Z,57.65
2023-05-07T01:21:07.867Z,57.59
2023-05-07T01:23:36.618Z,57.65
2023-05-07T01:26:04.513Z,57.32
2023-05-07T01:28:32.026Z,57.15
2023-05-07T01:31:02.845Z,56.72
2023-05-07T01:33:33.224Z,56.86
2023-05-07T01:36:03.258Z,56.72
2023-05-07T01:38:31.066Z,56.82
2023-05-07T01:40:58.960Z,56.81
2023-05-07T01:43:26.513Z,56.76
2023-05-07T01:45:54.636Z,56.82
2023-05-07T01:48:22.273Z,56.72
2023-05-07T01:50:49.865Z,56.73
2023-05-07T01:53:17.792Z,57.42
2023-05-07T01:55:46.277Z,57.83
2023-05-07T01:58:13.802Z,58.33
2023-05-07T02:00:41.964Z,58.24
2023-05-07T02:03:09.870Z,58.09
2023-05-07T02:05:37.886Z,58.04
2023-05-07T02:08:06.176Z,57.78
2023-05-07T02:10:33.933Z,57.28
2023-05-07T02:13:02.967Z,56.83
2023-05-07T02:15:30.536Z,57.05
2023-05-07T02:18:01.317Z,56.68
2023-05-07T02:20:29.274Z,56.44
2023-05-07T02:22:56.831Z,57.46
2023-05-07T02:25:25.077Z,58.09
2023-05-07T02:27:52.596Z,57.98
2023-05-07T02:30:22.448Z,58.74
2023-05-07T02:32:51.494Z,58.08
2023-05-07T02:35:18.997Z,57.98
2023-05-07T02:37:46.474Z,58.05
2023-05-07T02:40:14.442Z,57.44
2023-05-07T02:42:42.585Z,57.65
2023-05-07T02:45:10.650Z,57.78
2023-05-07T02:47:40.159Z,57.66
2023-05-07T02:50:08.425Z,57.38
2023-05-07T02:52:36.056Z,56.74
2023-05-07T02:55:03.979Z,59.29
2023-05-07T02:57:31.390Z,59.62
2023-05-07T02:59:59.235Z,59.83
2023-05-07T03:02:29.705Z,59.37
2023-05-07T03:04:57.169Z,59.44
2023-05-07T03:07:24.609Z,59.78
2023-05-07T03:09:52.271Z,59.57
2023-05-07T03:12:19.616Z,59.16
2023-05-07T03:14:47.000Z,58.90
2023-05-07T03:17:14.652Z,58.80
2023-05-07T03:19:42.008Z,58.70
2023-05-07T03:22:09.692Z,58.51
2023-05-07T03:24:37.633Z,58.59
2023-05-07T03:27:05.032Z,58.39
2023-05-07T03:29:32.463Z,58.34
2023-05-07T03:32:00.197Z,58.08
2023-05-07T03:34:27.633Z,58.25
2023-05-07T03:36:55.115Z,58.08
2023-05-07T03:39:23.909Z,57.62
2023-05-07T03:41:51.280Z,57.40
2023-05-07T03:44:18.709Z,57.21
2023-05-07T03:46:47.107Z,57.88
2023-05-07T03:49:14.497Z,57.65
2023-05-07T03:51:42.349Z,57.94
2023-05-07T03:54:10.272Z,58.33
2023-05-07T03:56:38.043Z,58.50
2023-05-07T03:59:05.486Z,59.37
2023-05-07T04:01:33.226Z,58.82
2023-05-07T04:04:01.051Z,58.78
2023-05-07T04:06:29.207Z,58.74
2023-05-07T04:08:56.703Z,59.13
2023-05-07T04:11:24.578Z,58.72
2023-05-07T04:13:51.997Z,58.63
2023-05-07T04:16:20.946Z,58.73
2023-05-07T04:18:48.787Z,58.66
2023-05-07T04:21:20.921Z,59.09
2023-05-07T04:23:49.576Z,59.20
2023-05-07T04:26:17.192Z,59.63
2023-05-07T04:28:44.700Z,59.42
2023-05-07T04:31:12.628Z,58.87
2023-05-07T04:33:40.346Z,59.37
2023-05-07T04:36:08.758Z,59.27
2023-05-07T04:38:37.075Z,59.30
2023-05-07T04:41:06.296Z,59.07
2023-05-07T04:43:34.538Z,59.44
2023-05-07T04:46:02.398Z,59.72
2023-05-07T04:48:30.281Z,58.86
2023-05-07T04:50:58.704Z,58.64
2023-05-07T04:53:26.452Z,58.18
2023-05-07T04:56:00.558Z,57.61
2023-05-07T04:58:32.647Z,57.37
2023-05-07T05:01:01.472Z,57.67
2023-05-07T05:03:29.678Z,58.68
2023-05-07T05:06:00.393Z,57.72
2023-05-07T05:08:28.203Z,56.91
2023-05-07T05:10:56.004Z,56.40
2023-05-07T05:13:23.540Z,56.30
2023-05-07T05:15:51.101Z,55.96
2023-05-07T05:18:19.081Z,56.21
2023-05-07T05:20:46.704Z,56.18
2023-05-07T05:23:14.286Z,56.42
2023-05-07T05:25:42.027Z,56.32
2023-05-07T05:28:09.918Z,55.75
2023-05-07T05:30:37.498Z,55.71
2023-05-07T05:33:05.226Z,56.35
2023-05-07T05:35:33.150Z,56.86
2023-05-07T05:38:02.495Z,57.54
2023-05-07T05:40:30.698Z,57.34
2023-05-07T05:42:58.115Z,57.13
2023-05-07T05:45:26.031Z,57.71
2023-05-07T05:47:53.781Z,58.67
2023-05-07T05:50:21.373Z,58.17
2023-05-07T05:52:49.165Z,57.28
2023-05-07T05:55:17.558Z,55.19
2023-05-07T05:57:45.059Z,54.57
2023-05-07T06:00:13.188Z,54.09
2023-05-07T06:02:46.062Z,53.69
2023-05-07T06:05:14.661Z,53.60
2023-05-07T06:07:42.982Z,53.75
2023-05-07T06:10:10.960Z,53.02
2023-05-07T06:12:39.252Z,53.42
2023-05-07T06:15:07.236Z,53.06
2023-05-07T06:17:35.196Z,52.57
2023-05-07T06:20:03.273Z,51.48
2023-05-07T06:22:30.663Z,51.68
2023-05-07T06:24:58.172Z,52.22
2023-05-07T06:27:26.398Z,50.99
2023-05-07T06:29:54.322Z,51.94
2023-05-07T06:32:21.849Z,50.80
2023-05-07T06:34:50.104Z,49.90
2023-05-07T06:37:17.872Z,48.32
2023-05-07T06:39:46.297Z,48.29
2023-05-07T06:42:14.087Z,48.89
2023-05-07T06:44:41.882Z,48.66
2023-05-07T06:47:09.537Z,48.97
2023-05-07T06:49:39.316Z,48.98
2023-05-07T06:52:06.965Z,48.41
2023-05-07T06:54:34.374Z,49.26
2023-05-07T06:57:02.073Z,48.75
2023-05-07T06:59:29.663Z,48.50
2023-05-07T07:01:57.290Z,48.21
2023-05-07T07:04:26.384Z,48.01
2023-05-07T07:06:55.187Z,48.54
2023-05-07T07:09:24.049Z,49.45
2023-05-07T07:11:51.998Z,49.74
2023-05-07T07:14:19.938Z,49.44
2023-05-07T07:16:47.933Z,50.28
2023-05-07T07:19:16.402Z,50.32
2023-05-07T07:21:44.092Z,50.07
2023-05-07T07:24:12.440Z,50.16
2023-05-07T07:26:41.004Z,50.29
2023-05-07T07:29:08.432Z,50.96
2023-05-07T07:31:36.436Z,51.10
2023-05-07T07:34:04.178Z,52.26
2023-05-07T07:36:42.446Z,52.27
2023-05-07T07:39:14.273Z,52.28
2023-05-07T07:41:42.418Z,52.13
2023-05-07T07:44:10.606Z,52.31
2023-05-07T07:46:38.410Z,52.16
2023-05-07T07:49:06.110Z,53.19
2023-05-07T07:51:33.569Z,53.29
2023-05-07T07:54:03.421Z,54.81
2023-05-07T07:56:34.167Z,54.87
2023-05-07T07:59:02.570Z,54.53
2023-05-07T08:01:33.875Z,55.89
2023-05-07T08:04:04.262Z,55.17
2023-05-07T08:06:33.293Z,54.06
2023-05-07T08:09:00.814Z,54.33
2023-05-07T08:11:28.958Z,54.29
2023-05-07T08:13:57.180Z,54.18
2023-05-07T08:16:25.086Z,53.83
2023-05-07T08:18:53.597Z,53.80
2023-05-07T08:21:21.316Z,53.51
2023-05-07T08:23:48.905Z,54.72
2023-05-07T08:26:16.657Z,54.21
2023-05-07T08:28:44.377Z,53.98
2023-05-07T08:31:11.920Z,53.41
2023-05-07T08:33:40.031Z,53.04
2023-05-07T08:36:07.927Z,53.31
2023-05-07T08:38:35.501Z,53.57
2023-05-07T08:41:03.345Z,53.70
2023-05-07T08:43:33.670Z,54.37
2023-05-07T08:46:03.175Z,54.70
2023-05-07T08:48:32.220Z,54.88
2023-05-07T08:51:01.076Z,55.69
2023-05-07T08:53:28.786Z,55.21
2023-05-07T08:55:57.053Z,54.55
2023-05-07T08:58:24.718Z,54.66
2023-05-07T09:00:52.903Z,54.21
2023-05-07T09:03:21.209Z,53.00
2023-05-07T09:05:49.161Z,54.59
2023-05-07T09:08:17.515Z,53.81
2023-05-07T09:10:46.104Z,53.44
2023-05-07T09:13:15.621Z,52.64
2023-05-07T09:15:43.807Z,51.98
2023-05-07T09:18:11.975Z,50.05
2023-05-07T09:20:40.512Z,51.31
2023-05-07T09:23:09.050Z,50.27
2023-05-07T09:25:37.711Z,51.06
2023-05-07T09:28:08.189Z,48.60
2023-05-07T09:30:36.816Z,48.48
2023-05-07T09:33:05.214Z,48.94
2023-05-07T09:35:33.885Z,48.80
2023-05-07T09:38:04.203Z,48.04
2023-05-07T09:40:32.920Z,47.43
2023-05-07T09:43:12.856Z,47.40
2023-05-07T09:45:42.178Z,48.19
2023-05-07T09:48:10.758Z,46.16
2023-05-07T09:50:50.829Z,45.59
2023-05-07T09:53:19.664Z,45.36
2023-05-07T09:55:47.777Z,46.93
2023-05-07T09:58:16.110Z,47.00
2023-05-07T10:00:44.262Z,49.14
2023-05-07T10:03:13.425Z,48.25
2023-05-07T10:05:41.847Z,49.34
2023-05-07T10:08:10.489Z,48.30
2023-05-07T10:10:39.095Z,48.25
2023-05-07T10:13:11.671Z,49.64
2023-05-07T10:15:40.331Z,49.39
2023-05-07T10:18:08.714Z,49.08
2023-05-07T10:20:37.649Z,49.73
2023-05-07T10:23:07.035Z,48.81
2023-05-07T10:25:35.406Z,48.27
2023-05-07T10:28:08.630Z,48.25
2023-05-07T10:31:02.567Z,48.29
2023-05-07T10:33:32.611Z,49.41
2023-05-07T10:36:02.473Z,49.34
2023-05-07T10:38:30.470Z,48.63
2023-05-07T10:40:59.721Z,46.80
2023-05-07T10:43:43.164Z,45.83
2023-05-07T10:46:21.183Z,46.04
2023-05-07T10:49:01.968Z,45.32
2023-05-07T10:51:32.246Z,46.42
2023-05-07T10:54:13.330Z,45.75
2023-05-07T10:56:44.377Z,45.41
2023-05-07T10:59:21.570Z,45.67
2023-05-07T11:02:07.639Z,46.56
2023-05-07T11:04:36.377Z,45.77
2023-05-07T11:07:30.993Z,42.93
2023-05-07T11:10:02.474Z,42.01
2023-05-07T11:12:47.181Z,39.66
2023-05-07T11:15:18.739Z,39.28
2023-05-07T11:17:57.681Z,41.96
2023-05-07T11:21:01.649Z,36.75
2023-05-07T11:23:36.682Z,38.02
2023-05-07T11:26:07.285Z,37.52
2023-05-07T11:28:40.279Z,36.43
2023-05-07T11:31:08.747Z,36.07
2023-05-07T11:33:37.034Z,35.87
2023-05-07T11:36:06.489Z,37.04
2023-05-07T11:38:39.587Z,37.11
2023-05-07T11:41:09.038Z,38.52
2023-05-07T11:43:37.117Z,36.97
2023-05-07T11:46:10.098Z,37.70
2023-05-07T11:48:38.018Z,38.07
2023-05-07T11:51:07.107Z,38.29
2023-05-07T11:53:42.101Z,38.61
2023-05-07T11:56:11.687Z,37.84
2023-05-07T11:58:39.386Z,37.62
2023-05-07T12:01:10.064Z,36.37
2023-05-07T12:03:38.865Z,37.67
2023-05-07T12:06:07.683Z,36.44
2023-05-07T12:08:37.902Z,36.98
2023-05-07T12:11:08.643Z,36.80
2023-05-07T12:13:36.103Z,35.83
2023-05-07T12:16:06.489Z,35.63
2023-05-07T12:18:35.053Z,36.07
2023-05-07T12:21:02.559Z,35.65
2023-05-07T12:23:30.816Z,35.21
2023-05-07T12:25:58.481Z,35.97
2023-05-07T12:28:25.875Z,36.68
2023-05-07T12:30:53.366Z,35.07
2023-05-07T12:33:25.754Z,37.33
2023-05-07T12:35:56.289Z,36.90
2023-05-07T12:38:24.034Z,38.53
2023-05-07T12:40:54.696Z,37.71
2023-05-07T12:43:25.828Z,36.96
2023-05-07T12:45:56.094Z,37.15
2023-05-07T12:48:24.596Z,36.82
2023-05-07T12:50:52.826Z,35.57
2023-05-07T12:53:22.435Z,35.74
2023-05-07T12:55:52.298Z,35.23
2023-05-07T12:58:28.853Z,36.08
2023-05-07T13:01:00.889Z,35.76
2023-05-07T13:03:31.503Z,36.63
2023-05-07T13:06:03.917Z,35.37
2023-05-07T13:08:37.345Z,34.82
2023-05-07T13:11:05.687Z,34.92
2023-05-07T13:13:34.408Z,35.41
2023-05-07T13:16:06.735Z,35.28
2023-05-07T13:18:35.171Z,35.15
2023-05-07T13:21:03.101Z,33.79
2023-05-07T13:23:30.527Z,37.07
2023-05-07T13:25:58.255Z,38.09
2023-05-07T13:28:26.051Z,37.99
2023-05-07T13:30:55.486Z,36.60
2023-05-07T13:33:23.289Z,36.31
2023-05-07T13:35:50.671Z,36.23
2023-05-07T13:38:18.942Z,35.99
2023-05-07T13:40:46.620Z,36.74
2023-05-07T13:43:14.364Z,36.86
2023-05-07T13:45:41.841Z,37.22
2023-05-07T13:48:09.730Z,36.47
2023-05-07T13:50:37.442Z,36.27
2023-05-07T13:53:04.885Z,36.74
2023-05-07T13:55:33.086Z,36.21
2023-05-07T13:58:01.851Z,36.42
2023-05-07T14:00:29.978Z,35.36
2023-05-07T14:02:57.873Z,35.67
2023-05-07T14:05:25.690Z,35.87
2023-05-07T14:07:53.628Z,36.19
2023-05-07T14:10:21.411Z,36.54
2023-05-07T14:12:48.995Z,34.81
2023-05-07T14:15:17.130Z,35.20
2023-05-07T14:17:45.037Z,34.99
2023-05-07T14:20:13.643Z,34.72
2023-05-07T14:22:41.421Z,35.28
2023-05-07T14:25:10.835Z,36.02
2023-05-07T14:27:38.382Z,35.69
2023-05-07T14:30:06.743Z,36.45
2023-05-07T14:32:35.098Z,35.50
2023-05-07T14:35:02.609Z,35.91
2023-05-07T14:37:30.062Z,35.49
2023-05-07T14:39:57.865Z,36.58
2023-05-07T14:42:25.302Z,37.15
2023-05-07T14:44:54.139Z,36.17
2023-05-07T14:47:21.875Z,36.27
2023-05-07T14:49:49.257Z,37.44
2023-05-07T14:52:16.677Z,36.64
2023-05-07T14:54:44.489Z,36.67
2023-05-07T14:57:14.506Z,36.80
2023-05-07T14:59:42.460Z,36.63
2023-05-07T15:02:12.477Z,36.31
2023-05-07T15:04:46.583Z,37.04
2023-05-07T15:07:16.228Z,37.08
2023-05-07T15:09:44.171Z,36.95
2023-05-07T15:12:12.601Z,36.94
2023-05-07T15:14:40.425Z,36.60
2023-05-07T15:17:08.566Z,37.11
2023-05-07T15:19:36.170Z,36.01
2023-05-07T15:22:03.989Z,36.51
2023-05-07T15:24:31.900Z,36.92
2023-05-07T15:26:59.569Z,36.49
2023-05-07T15:29:27.279Z,35.76
2023-05-07T15:31:55.400Z,36.07
2023-05-07T15:34:23.524Z,35.34
2023-05-07T15:36:51.324Z,35.72
2023-05-07T15:39:18.906Z,35.81
2023-05-07T15:41:46.371Z,35.40
2023-05-07T15:44:14.063Z,35.19
2023-05-07T15:46:42.720Z,34.78
2023-05-07T15:49:10.178Z,35.68
2023-05-07T15:51:37.975Z,35.09
2023-05-07T15:54:05.490Z,34.59
2023-05-07T15:56:33.911Z,34.94
2023-05-07T15:59:02.464Z,35.25
2023-05-07T16:01:30.103Z,35.53
2023-05-07T16:03:58.020Z,34.45
2023-05-07T16:06:25.712Z,35.71
2023-05-07T16:08:53.172Z,36.16
2023-05-07T16:11:21.036Z,35.53
2023-05-07T16:13:48.482Z,34.75
2023-05-07T16:16:16.045Z,34.30
2023-05-07T16:18:43.703Z,35.25
2023-05-07T16:21:11.126Z,34.90
2023-05-07T16:23:38.776Z,35.17
2023-05-07T16:26:06.444Z,35.62
2023-05-07T16:28:33.973Z,35.36
2023-05-07T16:31:01.901Z,35.12
2023-05-07T16:33:29.551Z,34.42
2023-05-07T16:35:57.022Z,35.17
2023-05-07T16:38:24.577Z,35.79
2023-05-07T16:40:52.706Z,35.35
2023-05-07T16:43:20.148Z,35.25
2023-05-07T16:45:48.538Z,35.70
2023-05-07T16:48:16.600Z,35.68
2023-05-07T16:50:44.674Z,34.54
2023-05-07T16:53:12.316Z,34.15
2023-05-07T16:55:41.013Z,34.76
2023-05-07T16:58:10.704Z,35.97
2023-05-07T17:00:50.181Z,35.52
2023-05-07T17:03:19.110Z,36.70
2023-05-07T17:05:47.032Z,36.06
2023-05-07T17:08:14.693Z,36.63
2023-05-07T17:10:42.484Z,37.23
2023-05-07T17:13:09.886Z,36.75
2023-05-07T17:15:37.249Z,35.72
2023-05-07T17:18:05.021Z,36.00
2023-05-07T17:20:32.536Z,36.61
2023-05-07T17:22:59.926Z,35.63
2023-05-07T17:25:27.675Z,36.01
2023-05-07T17:27:55.113Z,35.89
2023-05-07T17:30:22.522Z,36.09
2023-05-07T17:32:50.591Z,35.81
2023-05-07T17:35:18.187Z,35.86
2023-05-07T17:37:52.283Z,35.73
2023-05-07T17:40:22.276Z,35.51
2023-05-07T17:42:51.329Z,37.24
2023-05-07T17:45:20.492Z,37.05
2023-05-07T17:47:48.033Z,37.59
2023-05-07T17:50:15.592Z,36.87
2023-05-07T17:52:43.264Z,37.59
2023-05-07T17:55:10.927Z,37.89
2023-05-07T17:57:38.642Z,39.04
2023-05-07T18:00:07.869Z,38.41
2023-05-07T18:02:36.937Z,38.88
2023-05-07T18:05:04.711Z,39.01
2023-05-07T18:07:33.125Z,38.04
2023-05-07T18:10:00.902Z,38.71
2023-05-07T18:12:28.325Z,38.74
2023-05-07T18:14:55.815Z,37.76
2023-05-07T18:17:24.320Z,38.24
2023-05-07T18:19:54.709Z,37.83
2023-05-07T18:22:23.002Z,40.03
2023-05-07T18:24:52.338Z,38.82
2023-05-07T18:27:19.789Z,39.32
2023-05-07T18:29:47.654Z,39.49
2023-05-07T18:32:15.275Z,39.70
2023-05-07T18:34:42.769Z,39.74
2023-05-07T18:37:10.648Z,39.05
2023-05-07T18:39:38.083Z,38.87
2023-05-07T18:42:05.558Z,39.81
2023-05-07T18:44:37.385Z,39.74
2023-05-07T18:47:06.077Z,39.17
2023-05-07T18:49:34.632Z,39.10
2023-05-07T18:52:02.645Z,39.08
2023-05-07T18:54:30.060Z,38.79
2023-05-07T18:56:57.979Z,38.72
2023-05-07T18:59:25.599Z,39.19
2023-05-07T19:01:53.201Z,40.24
2023-05-07T19:04:21.101Z,39.85
2023-05-07T19:06:48.733Z,40.76
2023-05-07T19:09:16.163Z,40.63
2023-05-07T19:11:43.921Z,41.39
2023-05-07T19:14:11.428Z,39.91
2023-05-07T19:16:39.405Z,39.41
2023-05-07T19:19:07.202Z,39.45
2023-05-07T19:21:34.632Z,39.70
2023-05-07T19:24:02.085Z,39.78
2023-05-07T19:26:29.901Z,39.87
2023-05-07T19:29:12.148Z,40.22
2023-05-07T19:31:44.820Z,41.64
2023-05-07T19:34:13.995Z,41.13
2023-05-07T19:36:42.810Z,41.57
2023-05-07T19:39:11.503Z,40.38
2023-05-07T19:41:38.975Z,39.48
2023-05-07T19:44:06.465Z,39.32
2023-05-07T19:46:34.312Z,38.82
2023-05-07T19:49:02.534Z,38.63
2023-05-07T19:51:32.834Z,39.62
2023-05-07T19:54:02.255Z,39.80
2023-05-07T19:56:29.955Z,40.30
2023-05-07T19:58:57.355Z,41.28
2023-05-07T20:01:25.117Z,44.50
2023-05-07T20:03:53.119Z,45.51
2023-05-07T20:06:20.615Z,45.92
2023-05-07T20:08:48.030Z,46.31
2023-05-07T20:11:15.854Z,45.43
2023-05-07T20:13:43.476Z,45.14
2023-05-07T20:16:11.631Z,47.11
2023-05-07T20:18:39.630Z,47.21
2023-05-07T20:21:07.160Z,47.38
2023-05-07T20:23:34.562Z,48.90
2023-05-07T20:26:02.289Z,48.23
2023-05-07T20:28:29.764Z,48.13
2023-05-07T20:30:57.170Z,50.33
2023-05-07T20:33:24.986Z,51.21
2023-05-07T20:35:52.392Z,50.94
2023-05-07T20:38:19.894Z,50.96
2023-05-07T20:40:47.642Z,50.17
2023-05-07T20:43:15.193Z,50.86
2023-05-07T20:45:42.651Z,49.53
2023-05-07T20:48:10.394Z,50.09
2023-05-07T20:50:37.839Z,49.84
2023-05-07T20:53:05.529Z,49.50
2023-05-07T20:55:33.330Z,48.85
2023-05-07T20:58:00.786Z,49.33
2023-05-07T21:00:28.284Z,48.62
2023-05-07T21:02:55.995Z,48.30
2023-05-07T21:05:23.514Z,47.89
2023-05-07T21:07:50.935Z,47.35
2023-05-07T21:10:18.624Z,47.03
2023-05-07T21:12:46.089Z,45.66
2023-05-07T21:15:13.481Z,45.36
2023-05-07T21:17:41.254Z,44.84
2023-05-07T21:20:09.207Z,44.24
2023-05-07T21:22:36.729Z,44.30
2023-05-07T21:25:04.782Z,44.92
2023-05-07T21:27:32.186Z,43.83
2023-05-07T21:30:04.608Z,43.75
2023-05-07T21:32:34.124Z,43.82
2023-05-07T21:35:01.816Z,42.87
2023-05-07T21:37:29.728Z,42.54
2023-05-07T21:39:57.385Z,42.28
2023-05-07T21:42:25.306Z,42.30
2023-05-07T21:44:52.754Z,42.53
2023-05-07T21:47:20.461Z,42.35
2023-05-07T21:49:47.941Z,41.95
2023-05-07T21:52:17.032Z,41.62
2023-05-07T21:54:44.937Z,41.46
2023-05-07T21:57:12.368Z,41.19
2023-05-07T21:59:39.953Z,41.21
2023-05-07T22:02:07.737Z,41.75
2023-05-07T22:04:35.470Z,41.67
2023-05-07T22:07:03.094Z,42.04
2023-05-07T22:09:30.618Z,41.69
2023-05-07T22:11:58.312Z,41.48
2023-05-07T22:14:25.809Z,41.22
2023-05-07T22:16:53.473Z,41.28
2023-05-07T22:19:21.356Z,41.30
2023-05-07T22:21:49.178Z,40.94
2023-05-07T22:24:16.653Z,41.26
2023-05-07T22:26:45.184Z,41.56
2023-05-07T22:29:12.602Z,41.08
2023-05-07T22:31:40.035Z,40.84
2023-05-07T22:34:07.743Z,41.21
2023-05-07T22:36:35.129Z,41.45
2023-05-07T22:39:03.484Z,42.10
2023-05-07T22:41:31.149Z,42.54
2023-05-07T22:43:58.983Z,43.12
2023-05-07T22:46:26.663Z,42.67
2023-05-07T22:48:54.794Z,42.53
2023-05-07T22:51:22.231Z,42.71
2023-05-07T22:53:49.649Z,43.17
2023-05-07T22:56:17.272Z,43.21
2023-05-07T22:58:44.739Z,43.32
2023-05-07T23:01:13.852Z,42.85
2023-05-07T23:03:41.756Z,42.87
2023-05-07T23:06:09.185Z,42.69
2023-05-07T23:08:36.660Z,42.83
2023-05-07T23:11:04.382Z,43.13
2023-05-07T23:13:31.866Z,42.99
2023-05-07T23:15:59.264Z,42.79
2023-05-07T23:18:28.101Z,43.37
2023-05-07T23:20:55.568Z,42.94
2023-05-07T23:23:22.993Z,43.55
2023-05-07T23:25:53.792Z,43.52
2023-05-07T23:28:21.265Z,43.06
2023-05-07T23:30:48.714Z,43.19
2023-05-07T23:33:16.428Z,43.00
2023-05-07T23:35:43.826Z,43.06
2023-05-07T23:38:11.201Z,43.34
2023-05-07T23:40:38.840Z,43.24
2023-05-07T23:43:06.247Z,43.19
2023-05-07T23:45:33.627Z,43.67
2023-05-07T23:48:01.339Z,43.24
2023-05-07T23:50:28.768Z,43.40
2023-05-07T23:52:56.343Z,43.70
2023-05-07T23:55:24.002Z,43.45
2023-05-07T23:57:51.492Z,43.37
